Time;durP1;ratioP1;P1;durP2;ratioP2;P2;SDS_P1;SDS_P2;PMS_P1;PMS_P2;Temp;Humidity;BMP_temperature;BMP_pressure;BME280_temperature;BME280_humidity;BME280_pressure;Samples;Min_cycle;Max_cycle;Signal;HPM_P1;HPM_P2
2022/09/28 00:01:54;;;;;;;3.10;2.40;;;;;;;20.35;53.95;97685.94;5071244;28;20028;-77
2022/09/28 00:04:19;;;;;;;3.20;2.42;;;;;;;20.34;53.96;97671.88;5071122;28;20029;-77
2022/09/28 00:06:46;;;;;;;3.47;2.50;;;;;;;20.27;54.06;97668.41;5054582;28;20029;-77
2022/09/28 00:09:14;;;;;;;3.45;2.40;;;;;;;20.32;54.04;97683.69;5054413;28;20064;-77
2022/09/28 00:11:40;;;;;;;4.75;2.47;;;;;;;20.31;54.02;97692.69;5038297;28;20127;-77
2022/09/28 00:14:06;;;;;;;4.15;2.83;;;;;;;20.28;54.00;97683.28;5054568;28;20071;-77
2022/09/28 00:16:38;;;;;;;3.42;2.58;;;;;;;20.21;54.10;97675.34;5054433;28;20052;-77
2022/09/28 00:19:04;;;;;;;4.13;2.40;;;;;;;20.20;54.03;97675.56;5054590;28;20028;-76
2022/09/28 00:21:30;;;;;;;3.50;2.38;;;;;;;20.21;54.13;97680.66;5054583;28;20036;-76
2022/09/28 00:24:17;;;;;;;3.15;2.40;;;;;;;20.21;54.15;97687.81;5053970;28;20098;-76
2022/09/28 00:26:44;;;;;;;2.95;2.30;;;;;;;20.20;54.10;97683.50;5071363;28;20037;-77
2022/09/28 00:29:30;;;;;;;3.08;2.22;;;;;;;20.17;54.14;97684.72;5054247;28;20025;-77
2022/09/28 00:32:15;;;;;;;3.10;2.20;;;;;;;20.12;54.19;97681.06;5072207;28;20101;-77
2022/09/28 00:34:44;;;;;;;2.83;2.17;;;;;;;20.13;54.17;97690.63;5044837;28;20484;-76
2022/09/28 00:37:10;;;;;;;3.15;2.20;;;;;;;20.06;54.15;97678.19;5058577;28;20033;-75
2022/09/28 00:39:37;;;;;;;2.90;2.10;;;;;;;20.09;54.17;97676.19;5057966;28;20089;-75
2022/09/28 00:42:03;;;;;;;2.97;2.10;;;;;;;20.05;54.34;97673.94;5075867;28;20025;-75
2022/09/28 00:44:37;;;;;;;2.97;2.17;;;;;;;20.06;54.23;97682.69;5041074;28;20120;-74
2022/09/28 00:47:08;;;;;;;2.60;2.00;;;;;;;20.04;54.29;97674.94;5057921;28;20032;-75
2022/09/28 00:49:37;;;;;;;4.32;2.10;;;;;;;19.98;54.19;97673.09;5074349;28;20526;-75
2022/09/28 00:52:03;;;;;;;3.05;1.90;;;;;;;20.00;54.20;97672.91;5050372;28;20051;-75
2022/09/28 00:54:28;;;;;;;2.60;2.00;;;;;;;19.98;54.23;97673.09;5029838;28;20033;-75
2022/09/28 00:56:54;;;;;;;4.95;1.92;;;;;;;19.96;54.37;97669.06;5046609;28;20059;-75
2022/09/28 00:59:23;;;;;;;3.78;2.30;;;;;;;19.96;54.26;97669.84;5049750;28;20021;-75
2022/09/28 01:01:48;;;;;;;2.40;1.67;;;;;;;19.94;54.38;97679.84;5030882;28;20094;-75
2022/09/28 01:04:14;;;;;;;2.97;1.95;;;;;;;19.93;54.48;97677.41;5064576;28;20036;-75
2022/09/28 01:06:39;;;;;;;2.92;1.85;;;;;;;19.92;54.55;97670.47;5048195;28;20060;-75
2022/09/28 01:09:06;;;;;;;2.92;1.85;;;;;;;19.88;54.37;97670.06;5045694;28;20028;-76
2022/09/28 01:11:32;;;;;;;2.60;2.00;;;;;;;19.81;54.41;97656.78;5032052;28;20052;-76
2022/09/28 01:13:58;;;;;;;2.60;1.75;;;;;;;19.85;54.41;97663.34;5031961;28;20029;-76
2022/09/28 01:16:38;;;;;;;3.63;1.92;;;;;;;19.84;54.64;97655.59;5045601;28;20041;-75
2022/09/28 01:19:20;;;;;;;3.28;2.17;;;;;;;19.81;54.58;97653.34;5062632;28;20029;-77
2022/09/28 01:21:58;;;;;;;2.92;1.70;;;;;;;19.75;54.50;97643.53;5062758;28;20449;-75
2022/09/28 01:24:44;;;;;;;2.40;1.85;;;;;;;19.76;54.53;97643.34;5050898;28;20112;-75
2022/09/28 01:27:17;;;;;;;2.92;2.05;;;;;;;19.72;54.67;97634.19;5064525;28;20021;-76
2022/09/28 01:29:47;;;;;;;2.85;2.00;;;;;;;19.72;54.54;97636.81;5047963;28;20032;-76
2022/09/28 01:32:12;;;;;;;2.42;1.75;;;;;;;19.68;54.51;97623.16;5047096;28;20056;-75
2022/09/28 01:34:49;;;;;;;3.65;1.80;;;;;;;19.69;54.60;97619.50;5063416;28;20055;-73
2022/09/28 01:37:15;;;;;;;2.70;1.70;;;;;;;19.69;54.58;97619.50;5032116;28;20037;-76
2022/09/28 01:39:43;;;;;;;2.38;1.70;;;;;;;19.69;54.56;97619.50;5048464;28;20071;-75
2022/09/28 01:42:11;;;;;;;2.55;1.70;;;;;;;19.70;54.52;97623.78;5037069;28;20036;-75
2022/09/28 01:44:39;;;;;;;2.45;1.67;;;;;;;19.70;54.58;97630.91;5045945;28;20411;-75
2022/09/28 01:47:07;;;;;;;2.58;1.80;;;;;;;19.70;54.42;97634.38;5030520;28;20043;-75
2022/09/28 01:49:37;;;;;;;2.42;1.73;;;;;;;19.71;54.39;97632.53;5020370;28;20041;-74
2022/09/28 01:52:12;;;;;;;2.58;1.70;;;;;;;19.73;54.22;97634.97;5053502;28;20539;-74
2022/09/28 01:54:49;;;;;;;2.70;1.80;;;;;;;19.72;54.34;97639.47;5021416;28;20033;-74
2022/09/28 01:57:24;;;;;;;2.50;1.80;;;;;;;19.65;54.40;97634.16;5020691;28;20128;-74
2022/09/28 01:59:57;;;;;;;2.10;1.50;;;;;;;19.71;54.37;97656.38;5037251;28;20021;-75
2022/09/28 02:02:24;;;;;;;2.50;1.70;;;;;;;19.69;54.32;97659.22;5052088;28;20495;-74
2022/09/28 02:05:12;;;;;;;2.67;1.60;;;;;;;19.70;54.30;97668.78;5056529;28;20024;-73
2022/09/28 02:07:46;;;;;;;1.75;1.45;;;;;;;19.66;54.33;97666.75;5072792;28;20041;-78
2022/09/28 02:10:14;;;;;;;2.40;1.63;;;;;;;19.66;54.30;97675.50;5073114;28;20115;-79
2022/09/28 02:12:49;;;;;;;2.10;1.65;;;;;;;19.66;54.35;97683.44;5040584;28;20036;-79
2022/09/28 02:15:53;;;;;;;3.28;1.92;;;;;;;19.64;54.22;97684.66;5039900;28;20523;-79
2022/09/28 02:18:19;;;;;;;2.10;1.58;;;;;;;19.62;54.30;97697.28;5041794;28;20047;-78
2022/09/28 02:20:52;;;;;;;4.38;1.60;;;;;;;19.58;54.30;97686.28;5039450;28;20495;-79
2022/09/28 02:23:18;;;;;;;2.42;1.55;;;;;;;19.56;54.33;97682.19;5040009;28;20031;-78
2022/09/28 02:25:48;;;;;;;1.98;1.60;;;;;;;19.57;54.45;97687.28;5039990;28;20028;-79
2022/09/28 02:28:14;;;;;;;3.22;1.90;;;;;;;19.48;54.34;97675.25;5039856;28;20036;-78
2022/09/28 02:30:41;;;;;;;2.95;1.70;;;;;;;19.48;54.29;97681.38;5056587;28;20024;-78
2022/09/28 02:33:17;;;;;;;3.28;1.70;;;;;;;19.52;54.44;97693.19;5056488;28;20420;-79
2022/09/28 02:35:43;;;;;;;2.05;1.42;;;;;;;19.47;54.38;97684.22;5056271;28;20028;-79
2022/09/28 02:38:12;;;;;;;2.17;1.60;;;;;;;19.45;54.56;97687.06;5072610;28;20163;-79
2022/09/28 02:40:37;;;;;;;3.53;1.45;;;;;;;19.42;54.38;97681.34;5056005;28;20476;-78
2022/09/28 02:43:12;;;;;;;2.13;1.48;;;;;;;19.44;54.46;97685.44;5039158;28;20178;-79
2022/09/28 02:46:03;;;;;;;2.30;1.38;;;;;;;19.43;54.49;97690.91;5056737;28;20028;-79
2022/09/28 02:48:39;;;;;;;2.25;1.38;;;;;;;19.41;54.61;97685.81;5072328;28;20021;-79
2022/09/28 02:51:14;;;;;;;2.28;1.60;;;;;;;19.37;54.50;97684.59;5056155;28;20028;-77
2022/09/28 02:54:07;;;;;;;2.20;1.40;;;;;;;19.35;54.67;97686.63;5072044;28;20373;-79
2022/09/28 02:57:29;;;;;;;2.58;1.63;;;;;;;19.31;54.63;97702.09;5072093;28;20047;-78
2022/09/28 03:00:16;;;;;;;2.25;1.48;;;;;;;19.25;54.70;97691.47;5071549;28;20024;-78
2022/09/28 03:02:53;;;;;;;3.95;1.45;;;;;;;19.26;54.59;97695.75;5055218;28;20036;-78
2022/09/28 03:05:29;;;;;;;3.00;1.50;;;;;;;19.25;54.57;97691.47;5054632;28;20500;-78
2022/09/28 03:08:10;;;;;;;2.45;1.70;;;;;;;19.22;54.68;97697.16;5055072;28;20271;-77
2022/09/28 03:10:37;;;;;;;2.55;1.50;;;;;;;19.18;54.68;97691.44;5054360;28;20051;-79
2022/09/28 03:13:03;;;;;;;2.63;1.67;;;;;;;19.16;54.66;97683.72;5053373;28;20071;-79
2022/09/28 03:15:30;;;;;;;2.63;1.30;;;;;;;19.16;54.58;97682.88;5070559;28;20087;-79
2022/09/28 03:17:56;;;;;;;2.15;1.23;;;;;;;19.14;54.77;97690.22;5050285;28;20029;-79
2022/09/28 03:20:22;;;;;;;3.63;1.70;;;;;;;19.13;54.84;97696.50;5034245;28;20037;-79
2022/09/28 03:22:48;;;;;;;1.77;1.38;;;;;;;19.10;54.69;97700.38;5033457;28;20040;-78
2022/09/28 03:25:14;;;;;;;2.28;1.50;;;;;;;19.10;54.93;97704.84;5017123;28;20041;-79
2022/09/28 03:27:40;;;;;;;2.47;1.55;;;;;;;19.05;54.84;97701.97;5017336;28;20090;-78
2022/09/28 03:30:06;;;;;;;3.42;1.52;;;;;;;19.06;54.70;97701.78;5018249;28;20041;-77
2022/09/28 03:32:32;;;;;;;2.08;1.60;;;;;;;19.06;54.89;97698.31;5051641;28;20025;-79
2022/09/28 03:34:57;;;;;;;2.50;1.35;;;;;;;19.04;54.96;97695.88;5033947;28;20051;-78
2022/09/28 03:37:23;;;;;;;2.80;1.50;;;;;;;19.03;54.70;97704.00;5034889;28;20484;-79
2022/09/28 03:39:48;;;;;;;2.42;1.50;;;;;;;19.01;54.86;97703.38;5018340;28;20136;-78
2022/09/28 03:42:14;;;;;;;3.10;2.22;;;;;;;19.06;57.25;97700.97;5051436;28;20025;-72
2022/09/28 03:44:40;;;;;;;2.92;2.00;;;;;;;19.38;58.26;97703.94;5035430;28;20415;-79
2022/09/28 03:47:08;;;;;;;5.55;1.67;;;;;;;19.58;57.67;97694.22;5051695;28;20072;-76
2022/09/28 03:49:34;;;;;;;5.10;1.98;;;;;;;19.73;57.18;97693.22;5018260;28;20066;-77
2022/09/28 03:52:00;;;;;;;4.90;2.08;;;;;;;19.88;56.22;97691.25;5051601;28;20079;-77
2022/09/28 03:54:25;;;;;;;7.80;1.65;;;;;;;20.03;55.77;97686.56;5040968;28;20523;-71
2022/09/28 03:56:51;;;;;;;10.85;1.92;;;;;;;20.13;55.00;97677.38;5067936;28;20032;-73
2022/09/28 03:59:17;;;;;;;24.70;2.30;;;;;;;20.27;54.10;97691.44;5053066;28;20045;-73
2022/09/28 04:01:42;;;;;;;13.35;2.00;;;;;;;20.34;54.26;97695.72;5027324;28;20013;-71
2022/09/28 04:04:11;;;;;;;11.60;2.17;;;;;;;20.32;54.49;97694.28;5058991;28;20032;-71
2022/09/28 04:06:37;;;;;;;17.58;2.42;;;;;;;20.40;54.64;97708.16;5041761;28;20479;-71
2022/09/28 04:09:03;;;;;;;6.43;2.15;;;;;;;20.36;54.49;97712.22;5042216;28;20064;-71
2022/09/28 04:11:28;;;;;;;21.88;2.22;;;;;;;20.40;54.05;97717.97;5043102;28;20021;-72
2022/09/28 04:13:54;;;;;;;9.65;2.47;;;;;;;20.43;54.10;97706.94;5027242;28;20036;-70
2022/09/28 04:16:19;;;;;;;4.25;1.60;;;;;;;20.67;53.51;97712.63;5024857;28;20072;-72
2022/09/28 04:18:46;;;;;;;8.80;1.77;;;;;;;20.78;53.06;97715.47;5043814;28;20033;-73
2022/09/28 04:21:13;;;;;;;4.38;1.63;;;;;;;21.25;51.24;97722.47;5060660;28;20028;-81
2022/09/28 04:23:38;;;;;;;3.90;1.48;;;;;;;21.61;49.66;97723.78;5027586;28;20124;-76
2022/09/28 04:26:05;;;;;;;6.15;1.48;;;;;;;21.96;48.20;97721.50;5041320;28;20175;-74
2022/09/28 04:31:19;;;;;;;2.97;1.40;;;;;;;21.59;48.25;97733.78;5058117;28;20093;-74
2022/09/28 04:33:45;;;;;;;2.63;1.30;;;;;;;21.48;48.69;97737.91;5027602;28;20039;-73
2022/09/28 04:36:10;;;;;;;2.88;1.05;;;;;;;21.84;47.98;97741.81;5027362;28;20040;-73
2022/09/28 04:38:37;;;;;;;1.55;1.00;;;;;;;22.42;46.28;97750.63;5041028;28;20619;-73
2022/09/28 04:41:02;;;;;;;5.28;1.75;;;;;;;23.01;44.85;97751.09;5051084;28;20040;-72
2022/09/28 04:43:28;;;;;;;4.75;1.58;;;;;;;23.69;43.25;97738.63;5059418;28;20512;-74
2022/09/28 04:45:58;;;;;;;6.22;3.08;;;;;;;24.20;42.00;97742.63;5041164;28;20040;-73
2022/09/28 04:48:24;;;;;;;27.25;19.27;;;;;;;24.65;41.08;97744.78;5058638;28;20511;-74
2022/09/28 04:50:56;;;;;;;12.90;7.65;;;;;;;25.14;40.10;97743.69;5044638;28;20029;-74
2022/09/28 04:53:22;;;;;;;4.65;3.00;;;;;;;25.48;39.20;97747.34;5042289;28;20048;-74
2022/09/28 04:56:00;;;;;;;6.18;2.13;;;;;;;25.87;38.58;97744.03;5042058;28;20036;-74
2022/09/28 04:58:26;;;;;;;19.50;11.63;;;;;;;26.32;37.90;97732.53;5059260;28;20017;-75
2022/09/28 05:00:52;;;;;;;6.10;3.70;;;;;;;26.66;37.00;97737.88;5044728;28;20035;-73
2022/09/28 05:03:18;;;;;;;8.85;3.67;;;;;;;26.97;36.59;97744.47;5058442;28;20059;-73
2022/09/28 05:05:44;;;;;;;6.75;2.58;;;;;;;27.24;36.08;97752.56;5044021;28;20480;-73
2022/09/28 05:08:10;;;;;;;4.88;2.30;;;;;;;27.56;35.62;97757.28;5049937;28;20054;-73
2022/09/28 05:10:35;;;;;;;5.80;2.30;;;;;;;27.81;35.06;97753.22;5060729;28;20035;-73
2022/09/28 05:13:01;;;;;;;5.22;2.95;;;;;;;28.10;34.77;97759.19;5057608;28;20036;-74
2022/09/28 05:15:27;;;;;;;5.80;2.40;;;;;;;28.46;34.19;97758.66;5032378;28;20095;-73
2022/09/28 05:17:52;;;;;;;7.15;2.40;;;;;;;28.76;33.84;97760.75;5042234;28;20021;-73
2022/09/28 05:20:18;;;;;;;4.88;2.30;;;;;;;28.98;33.39;97751.78;5063179;28;20029;-75
2022/09/28 05:22:43;;;;;;;8.07;2.10;;;;;;;29.17;33.02;97752.13;5030598;28;20033;-74
2022/09/28 05:25:09;;;;;;;5.78;1.85;;;;;;;29.35;32.82;97745.50;5030238;28;20052;-74
2022/09/28 05:27:34;;;;;;;6.88;1.73;;;;;;;29.53;32.64;97752.31;5046857;28;20028;-74
2022/09/28 05:30:00;;;;;;;6.32;1.70;;;;;;;29.69;32.57;97745.06;5045568;28;20339;-75
2022/09/28 05:32:25;;;;;;;7.10;1.80;;;;;;;29.85;32.07;97752.13;5032200;28;20040;-75
2022/09/28 05:34:51;;;;;;;5.70;1.95;;;;;;;29.99;32.25;97757.00;5031691;28;20064;-75
2022/09/28 05:37:16;;;;;;;10.40;3.30;;;;;;;30.20;32.44;97752.44;5044592;28;20553;-75
2022/09/28 05:39:42;;;;;;;6.25;2.05;;;;;;;30.34;31.86;97750.81;5045491;28;20504;-77
2022/09/28 05:42:07;;;;;;;6.20;3.17;;;;;;;30.53;31.63;97758.38;5062730;28;20028;-80
2022/09/28 05:44:33;;;;;;;7.90;2.15;;;;;;;30.67;30.55;97751.34;5028461;28;20052;-76
2022/09/28 05:46:59;;;;;;;6.35;1.90;;;;;;;30.81;30.74;97756.97;5046562;28;20055;-74
2022/09/28 05:49:27;;;;;;;6.28;1.83;;;;;;;31.01;29.81;97759.66;5046917;28;20028;-75
2022/09/28 05:51:53;;;;;;;4.53;1.27;;;;;;;31.16;29.40;97774.16;5047137;28;20452;-77
2022/09/28 05:54:19;;;;;;;8.93;1.70;;;;;;;31.31;28.98;97776.81;5060801;28;20112;-75
2022/09/28 05:56:44;;;;;;;12.75;1.50;;;;;;;31.54;28.92;97777.28;5062599;28;20029;-77
2022/09/28 05:59:10;;;;;;;11.27;1.42;;;;;;;31.86;28.72;97793.00;5031842;28;20522;-78
2022/09/28 06:01:36;;;;;;;14.40;1.60;;;;;;;32.00;28.13;97785.09;5029896;28;20038;-78
2022/09/28 06:04:02;;;;;;;7.13;1.40;;;;;;;32.08;28.10;97787.22;5044592;28;20029;-76
2022/09/28 06:06:27;;;;;;;9.05;1.50;;;;;;;32.18;28.07;97789.06;5061002;28;20032;-75
2022/09/28 06:08:53;;;;;;;6.13;1.67;;;;;;;32.30;27.63;97796.78;5061043;28;20028;-76
2022/09/28 06:11:18;;;;;;;5.70;1.17;;;;;;;32.30;27.79;97801.38;5030100;28;20021;-78
2022/09/28 06:13:44;;;;;;;5.15;1.20;;;;;;;32.47;27.45;97793.69;5045132;28;20464;-78
2022/09/28 06:16:15;;;;;;;5.13;1.90;;;;;;;32.57;27.19;97809.78;5046869;28;20052;-77
2022/09/28 06:18:41;;;;;;;4.63;1.40;;;;;;;32.72;27.36;97802.66;5062585;28;20123;-77
2022/09/28 06:21:09;;;;;;;5.63;1.10;;;;;;;32.83;26.44;97801.50;5030622;28;20144;-78
2022/09/28 06:23:35;;;;;;;3.13;1.33;;;;;;;32.82;26.33;97800.69;5030525;28;20028;-79
2022/09/28 06:26:00;;;;;;;2.85;1.10;;;;;;;32.79;26.63;97795.03;5028200;28;20569;-77
2022/09/28 06:28:27;;;;;;;7.60;1.70;;;;;;;32.87;26.14;97799.81;5044255;28;20089;-79
2022/09/28 06:30:52;;;;;;;6.28;1.38;;;;;;;32.80;26.72;97792.06;5062086;28;20047;-79
2022/09/28 06:33:18;;;;;;;4.32;2.55;;;;;;;32.82;26.91;97802.59;5040912;28;20465;-79
2022/09/28 06:35:43;;;;;;;3.17;1.40;;;;;;;32.95;26.65;97803.81;5039757;28;20036;-77
2022/09/28 06:38:09;;;;;;;4.43;1.20;;;;;;;33.13;26.06;97810.34;5055484;28;20094;-77
2022/09/28 06:40:35;;;;;;;2.75;1.50;;;;;;;33.04;26.07;97804.78;5039446;28;20055;-78
2022/09/28 06:43:11;;;;;;;5.03;1.70;;;;;;;33.18;26.06;97799.53;5039481;28;20554;-77
2022/09/28 06:45:37;;;;;;;4.30;1.60;;;;;;;33.25;25.66;97782.97;5073418;28;20059;-77
2022/09/28 06:48:03;;;;;;;3.70;1.83;;;;;;;33.26;25.75;97788.09;5056289;28;20155;-78
2022/09/28 06:50:39;;;;;;;5.70;1.30;;;;;;;33.43;25.22;97792.19;5038936;28;20043;-77
2022/09/28 06:53:06;;;;;;;6.55;1.30;;;;;;;33.63;25.26;97796.56;5040350;28;20029;-78
2022/09/28 06:55:31;;;;;;;2.55;1.33;;;;;;;33.72;24.53;97797.53;5039877;28;20036;-78
2022/09/28 06:57:58;;;;;;;11.45;1.20;;;;;;;33.87;24.81;97791.09;5039549;28;20056;-78
2022/09/28 07:00:24;;;;;;;5.93;2.03;;;;;;;34.03;24.59;97797.91;5056320;28;20480;-77
2022/09/28 07:02:50;;;;;;;4.50;1.97;;;;;;;34.20;24.47;97799.28;5039758;28;20039;-77
2022/09/28 07:05:18;;;;;;;5.70;1.95;;;;;;;34.39;24.21;97802.78;5056273;28;20451;-79
2022/09/28 07:07:43;;;;;;;;;;;;;;;34.57;23.99;97797.63;5057061;28;20029;-78
2022/09/28 07:10:10;;;;;;;3.67;1.60;;;;;;;34.76;23.44;97801.13;5072638;28;19914;-78
2022/09/28 07:12:36;;;;;;;5.47;2.60;;;;;;;34.94;23.08;97802.13;5055957;28;20027;-78
2022/09/28 07:15:02;;;;;;;7.35;2.20;;;;;;;35.10;22.79;97799.94;5057246;28;20064;-79
2022/09/28 07:17:28;;;;;;;5.80;2.25;;;;;;;35.29;22.46;97797.16;5056236;28;20024;-76
2022/09/28 07:19:56;;;;;;;7.75;2.72;;;;;;;35.51;22.13;97801.84;5073022;28;20410;-79
2022/09/28 07:22:22;;;;;;;5.55;3.20;;;;;;;35.85;21.91;97807.94;5061801;28;20027;-81
2022/09/28 07:24:49;;;;;;;11.50;3.88;;;;;;;36.17;21.37;97801.53;5042370;28;20028;-82
2022/09/28 07:27:15;;;;;;;11.68;5.03;;;;;;;36.49;21.13;97805.13;5043909;28;20068;-83
2022/09/28 07:29:40;;;;;;;9.52;5.60;;;;;;;36.64;20.70;97816.72;5046540;28;20048;-82
2022/09/28 07:32:07;;;;;;;19.83;6.80;;;;;;;36.63;20.54;97815.91;5040783;28;20059;-78
2022/09/28 07:34:42;;;;;;;10.43;6.10;;;;;;;36.48;20.62;97819.00;5059364;28;20032;-81
2022/09/28 07:37:11;;;;;;;15.57;6.40;;;;;;;36.15;21.18;97814.63;5058442;28;20029;-77
2022/09/28 07:42:24;;;;;;;9.82;6.85;;;;;;;35.84;21.69;97822.66;5057790;28;20039;-78
2022/09/28 07:44:50;;;;;;;13.25;6.10;;;;;;;35.71;21.52;97824.25;5065248;28;20032;-78
2022/09/28 07:47:16;;;;;;;11.43;6.20;;;;;;;35.68;21.86;97814.00;5046088;28;20082;-82
2022/09/28 07:49:43;;;;;;;14.93;5.78;;;;;;;35.48;21.74;97807.88;5035428;28;20033;-80
2022/09/28 07:52:09;;;;;;;12.77;6.40;;;;;;;35.42;22.14;97814.53;5027101;28;20119;-78
2022/09/28 07:54:36;;;;;;;9.17;4.83;;;;;;;35.27;22.31;97809.44;5031045;28;20036;-79
2022/09/28 07:57:01;;;;;;;8.60;5.13;;;;;;;35.24;22.43;97816.22;5046786;28;20484;-79
2022/09/28 07:59:27;;;;;;;11.02;2.67;;;;;;;35.29;21.95;97816.13;5044788;28;20025;-80
2022/09/28 08:01:52;;;;;;;12.80;3.30;;;;;;;35.25;21.76;97817.03;5042513;28;20024;-77
2022/09/28 08:04:19;;;;;;;13.60;3.58;;;;;;;35.45;22.20;97813.91;5041633;28;20028;-81
2022/09/28 08:06:45;;;;;;;8.98;2.65;;;;;;;35.64;21.93;97813.00;5047917;28;20033;-84
2022/09/28 08:09:10;;;;;;;10.15;2.70;;;;;;;35.74;21.61;97814.69;5034262;28;20036;-82
2022/09/28 08:11:36;;;;;;;11.07;2.08;;;;;;;35.50;21.87;97807.59;5036107;28;20029;-83
2022/09/28 08:14:01;;;;;;;9.75;2.10;;;;;;;35.50;21.97;97813.84;5036577;28;20045;-85
2022/09/28 08:16:27;;;;;;;6.28;2.40;;;;;;;35.51;22.31;97812.72;5033741;28;20036;-86
2022/09/28 08:18:53;;;;;;;7.88;1.75;;;;;;;35.47;22.12;97814.44;5048564;28;20036;-80
2022/09/28 08:24:19;;;;;;;6.88;2.00;;;;;;;35.53;21.94;97815.13;5050012;28;20041;-80
2022/09/28 08:26:45;;;;;;;6.68;2.20;;;;;;;35.44;22.41;97823.19;5012361;28;20049;-82
2022/09/28 08:29:10;;;;;;;3.65;1.92;;;;;;;35.39;22.72;97819.75;5034558;28;20558;-84
2022/09/28 08:31:36;;;;;;;7.40;1.90;;;;;;;35.32;22.70;97809.31;5046941;28;20501;-86
2022/09/28 08:34:01;;;;;;;4.50;1.90;;;;;;;35.42;22.51;97813.72;5048497;28;20052;-79
2022/09/28 08:36:27;;;;;;;3.72;1.65;;;;;;;35.24;22.31;97813.50;5061431;28;20062;-82
2022/09/28 08:38:53;;;;;;;6.20;1.50;;;;;;;35.21;22.11;97816.81;5009940;28;20045;-79
2022/09/28 08:41:41;;;;;;;3.20;1.50;;;;;;;35.20;22.35;97811.69;5047309;28;20092;-82
2022/09/28 08:44:18;;;;;;;4.20;1.42;;;;;;;35.09;22.70;97803.78;5044325;28;20116;-76
2022/09/28 08:46:47;;;;;;;4.68;1.58;;;;;;;34.77;22.77;97801.91;5048448;28;20036;-77
2022/09/28 08:49:17;;;;;;;4.15;1.25;;;;;;;34.76;22.71;97800.28;5042457;28;20129;-77
2022/09/28 08:52:07;;;;;;;3.80;1.13;;;;;;;34.87;22.77;97795.50;5062301;28;20107;-79
2022/09/28 08:54:35;;;;;;;4.10;1.30;;;;;;;34.87;23.01;97796.31;5065527;28;20049;-79
2022/09/28 08:57:13;;;;;;;4.32;1.23;;;;;;;34.92;22.91;97803.56;5065792;28;20025;-81
2022/09/28 08:59:43;;;;;;;2.97;1.40;;;;;;;34.93;22.66;97792.41;5062138;28;20067;-77
2022/09/28 09:02:27;;;;;;;5.78;1.20;;;;;;;35.02;22.79;97797.94;5066911;28;20020;-80
2022/09/28 09:04:55;;;;;;;2.53;1.05;;;;;;;34.95;23.00;97801.03;5070796;28;20035;-78
2022/09/28 09:07:29;;;;;;;4.60;1.15;;;;;;;34.94;23.16;97801.34;5058781;28;20029;-76
2022/09/28 09:10:17;;;;;;;7.47;1.35;;;;;;;34.93;23.00;97807.84;5064776;28;20021;-75
2022/09/28 09:13:04;;;;;;;2.28;0.93;;;;;;;34.47;23.47;97809.44;5052813;28;20025;-80
2022/09/28 09:16:08;;;;;;;11.23;1.27;;;;;;;34.71;23.30;97803.91;5066910;28;20558;-78
2022/09/28 09:18:40;;;;;;;4.03;0.90;;;;;;;34.38;23.50;97805.78;5061426;28;20514;-76
2022/09/28 09:21:20;;;;;;;6.85;1.02;;;;;;;34.53;23.57;97800.13;5035817;28;20115;-74
2022/09/28 09:23:55;;;;;;;7.30;0.95;;;;;;;34.61;23.42;97804.06;5024882;28;20152;-81
2022/09/28 09:26:34;;;;;;;1.77;0.90;;;;;;;34.12;23.49;97802.66;5025416;28;20032;-80
2022/09/28 09:29:12;;;;;;;5.30;1.00;;;;;;;34.21;24.04;97798.19;5053427;28;20097;-79
2022/09/28 09:31:43;;;;;;;9.02;1.08;;;;;;;34.21;23.69;97803.59;5034981;28;20039;-77
2022/09/28 09:34:23;;;;;;;4.35;0.73;;;;;;;34.20;24.13;97793.88;5043352;28;20090;-85
2022/09/28 09:37:24;;;;;;;5.53;1.13;;;;;;;34.37;23.38;97788.75;5053078;28;20128;-83
2022/09/28 09:40:08;;;;;;;3.95;0.90;;;;;;;34.34;24.38;97788.53;5054183;28;20040;-82
2022/09/28 09:43:11;;;;;;;1.25;0.80;;;;;;;34.28;23.70;97787.81;5060531;28;20045;-81
2022/09/28 09:45:39;;;;;;;5.10;1.00;;;;;;;33.94;23.98;97777.19;5046761;28;20029;-86
2022/09/28 09:48:56;;;;;;;3.25;1.17;;;;;;;33.88;24.31;97781.88;5060451;28;20039;-83
2022/09/28 09:51:23;;;;;;;1.77;0.90;;;;;;;33.79;24.70;97780.94;5000021;28;20038;-78
2022/09/28 09:54:05;;;;;;;2.60;0.80;;;;;;;33.35;23.32;97775.53;4983199;28;20040;-78
2022/09/28 09:56:37;;;;;;;2.55;0.70;;;;;;;33.45;24.20;97781.91;4989708;28;20041;-77
2022/09/28 09:59:14;;;;;;;3.22;0.80;;;;;;;33.12;23.76;97777.13;4974037;28;20038;-74
2022/09/28 10:01:40;;;;;;;4.97;1.05;;;;;;;32.91;24.75;97776.56;4970297;28;20061;-73
2022/09/28 10:04:26;;;;;;;2.38;0.68;;;;;;;32.76;24.19;97779.41;4996993;28;20060;-73
2022/09/28 10:06:55;;;;;;;5.38;0.90;;;;;;;32.45;24.78;97774.22;4995977;28;20041;-76
2022/09/28 10:09:26;;;;;;;4.40;1.35;;;;;;;31.84;25.04;97780.88;4973727;28;20563;-74
2022/09/28 10:11:52;;;;;;;2.88;0.70;;;;;;;31.14;25.91;97771.75;5004057;28;20489;-76
2022/09/28 10:14:22;;;;;;;1.48;0.80;;;;;;;30.63;26.66;97777.19;4972869;28;20038;-72
2022/09/28 10:16:48;;;;;;;4.15;0.80;;;;;;;29.65;27.05;97769.00;4996400;28;20054;-73
2022/09/28 10:19:15;;;;;;;3.38;1.10;;;;;;;29.15;28.17;97773.09;4994256;28;20026;-76
2022/09/28 10:21:40;;;;;;;4.53;1.08;;;;;;;29.04;28.98;97766.84;5002403;28;21039;-74
2022/09/28 10:24:25;;;;;;;3.05;0.90;;;;;;;29.16;29.33;97762.06;4995812;28;20037;-74
2022/09/28 10:26:52;;;;;;;5.50;1.15;;;;;;;29.14;30.19;97760.72;5039074;28;20045;-77
2022/09/28 10:29:22;;;;;;;2.33;0.82;;;;;;;29.15;29.27;97755.06;5027139;28;20029;-75
2022/09/28 10:31:52;;;;;;;1.00;0.60;;;;;;;29.45;29.29;97760.88;5029081;28;20032;-75
2022/09/28 10:34:24;;;;;;;2.67;0.80;;;;;;;29.39;28.72;97763.53;5031949;28;20029;-76
2022/09/28 10:37:02;;;;;;;1.63;0.80;;;;;;;29.58;27.13;97760.38;5029870;28;20052;-77
2022/09/28 10:39:35;;;;;;;3.67;0.70;;;;;;;29.82;25.93;97754.53;5061305;28;20484;-75
2022/09/28 10:42:08;;;;;;;3.40;0.70;;;;;;;30.09;26.40;97759.69;5045258;28;20740;-77
2022/09/28 10:44:46;;;;;;;1.67;0.60;;;;;;;30.20;25.78;97749.72;5042917;28;20024;-78
2022/09/28 10:47:14;;;;;;;4.35;0.73;;;;;;;30.32;24.93;97742.19;5059375;28;20067;-77
2022/09/28 10:49:41;;;;;;;2.90;0.90;;;;;;;30.39;25.81;97744.66;5028494;28;20033;-73
2022/09/28 10:52:32;;;;;;;3.30;0.73;;;;;;;30.51;25.22;97737.09;5028371;28;20051;-73
2022/09/28 10:54:58;;;;;;;2.47;0.60;;;;;;;30.57;25.29;97727.13;5050623;28;20115;-79
2022/09/28 10:57:34;;;;;;;2.38;0.70;;;;;;;30.57;23.52;97729.81;5049347;28;20124;-77
2022/09/28 11:00:00;;;;;;;1.95;0.50;;;;;;;30.62;25.47;97730.63;5025899;28;20570;-75
2022/09/28 11:02:35;;;;;;;4.32;0.70;;;;;;;30.70;24.76;97725.78;5051602;28;20439;-77
2022/09/28 11:05:01;;;;;;;1.42;0.57;;;;;;;30.58;24.36;97726.03;5024959;28;20528;-77
2022/09/28 11:07:31;;;;;;;3.45;0.68;;;;;;;30.64;25.28;97725.75;5049513;28;20166;-77
2022/09/28 11:09:57;;;;;;;1.27;0.68;;;;;;;30.49;23.98;97715.84;5029304;28;20491;-78
2022/09/28 11:12:25;;;;;;;3.67;0.57;;;;;;;30.02;24.69;97700.75;5042763;28;20495;-77
2022/09/28 11:15:01;;;;;;;0.95;0.43;;;;;;;30.04;24.26;97717.44;5039532;28;20497;-78
2022/09/28 11:17:37;;;;;;;1.05;0.40;;;;;;;29.99;24.16;97711.25;5049509;28;20033;-78
2022/09/28 11:20:30;;;;;;;2.33;0.70;;;;;;;29.91;25.28;97710.72;5025020;28;20039;-77
2022/09/28 11:23:00;;;;;;;2.08;0.70;;;;;;;29.88;24.06;97699.69;5055163;28;20082;-78
2022/09/28 11:25:27;;;;;;;6.40;0.88;;;;;;;29.81;25.06;97715.25;5048219;28;20123;-77
2022/09/28 11:27:52;;;;;;;1.48;0.50;;;;;;;29.84;24.74;97710.19;5033820;28;20024;-78
2022/09/28 11:30:32;;;;;;;2.50;0.60;;;;;;;29.92;26.01;97704.25;5054848;28;20036;-77
2022/09/28 11:33:13;;;;;;;2.15;0.55;;;;;;;29.64;23.74;97710.13;5043483;28;20041;-78
2022/09/28 11:36:00;;;;;;;4.10;0.60;;;;;;;29.26;24.56;97690.66;5059905;28;20025;-76
2022/09/28 11:38:26;;;;;;;5.85;0.75;;;;;;;29.11;25.08;97699.44;5042165;28;20044;-82
2022/09/28 11:41:01;;;;;;;1.23;0.40;;;;;;;29.04;26.34;97686.25;5061140;28;20032;-77
2022/09/28 11:43:42;;;;;;;1.92;0.50;;;;;;;28.84;24.12;97681.59;5058861;28;20044;-74
2022/09/28 11:46:19;;;;;;;1.98;0.52;;;;;;;28.68;26.26;97688.75;5060129;28;20063;-77
2022/09/28 11:48:48;;;;;;;2.95;0.60;;;;;;;28.59;25.04;97684.94;5059708;28;20044;-76
2022/09/28 11:51:24;;;;;;;2.42;0.50;;;;;;;28.62;24.99;97689.81;5029590;28;20521;-77
2022/09/28 11:54:13;;;;;;;3.15;0.70;;;;;;;28.60;24.88;97668.59;5043383;28;20025;-82
2022/09/28 11:56:40;;;;;;;2.75;0.50;;;;;;;28.61;24.72;97678.25;5059822;28;20037;-77